createdAt,value
2023-02-12T00:01:29.580Z,33.50
2023-02-12T00:03:58.696Z,35.00
2023-02-12T00:06:27.759Z,32.75
2023-02-12T00:08:57.731Z,34.25
2023-02-12T00:11:28.915Z,33.75
2023-02-12T00:13:58.568Z,32.00
2023-02-12T00:16:29.689Z,31.50
2023-02-12T00:19:00.242Z,32.50
2023-02-12T00:21:30.608Z,33.00
2023-02-12T00:23:59.654Z,33.25
2023-02-12T00:26:27.944Z,32.75
2023-02-12T00:28:56.848Z,35.00
2023-02-12T00:31:28.460Z,33.75
2023-02-12T00:33:57.245Z,32.75
2023-02-12T00:36:27.646Z,34.00
2023-02-12T00:38:57.950Z,32.00
2023-02-12T00:41:27.374Z,30.50
2023-02-12T00:43:55.794Z,36.25
2023-02-12T00:46:24.676Z,36.25
2023-02-12T00:48:53.153Z,33.00
2023-02-12T00:51:21.629Z,32.75
2023-02-12T00:53:49.960Z,34.25
2023-02-12T00:56:18.258Z,35.25
2023-02-12T00:58:46.584Z,35.75
2023-02-12T01:01:15.170Z,34.75
2023-02-12T01:03:43.604Z,37.00
2023-02-12T01:06:11.968Z,38.75
2023-02-12T01:08:40.300Z,36.25
2023-02-12T01:11:08.826Z,40.00
2023-02-12T01:13:37.300Z,37.50
2023-02-12T01:16:17.965Z,38.75
2023-02-12T01:18:47.253Z,38.75
2023-02-12T01:21:21.385Z,38.00
2023-02-12T01:23:50.489Z,35.50
2023-02-12T01:26:20.543Z,35.75
2023-02-12T01:28:54.645Z,37.25
2023-02-12T01:31:25.661Z,37.75
2023-02-12T01:33:56.897Z,36.50
2023-02-12T01:36:25.823Z,35.25
2023-02-12T01:38:54.138Z,36.50
2023-02-12T01:41:25.820Z,38.75
2023-02-12T01:44:15.151Z,36.75
2023-02-12T01:46:44.960Z,36.00
2023-02-12T01:49:21.779Z,36.25
2023-02-12T01:51:55.479Z,37.00
2023-02-12T01:54:26.849Z,34.75
2023-02-12T01:56:56.107Z,38.50
2023-02-12T01:59:26.011Z,37.25
2023-02-12T02:01:56.138Z,38.50
2023-02-12T02:04:33.781Z,37.25
2023-02-12T02:07:05.561Z,38.00
2023-02-12T02:09:37.795Z,35.25
2023-02-12T02:12:25.457Z,34.25
2023-02-12T02:14:57.617Z,38.50
2023-02-12T02:17:43.952Z,37.00
2023-02-12T02:20:18.521Z,36.00
2023-02-12T02:22:55.794Z,36.25
2023-02-12T02:26:01.066Z,37.25
2023-02-12T02:28:41.164Z,35.75
2023-02-12T02:31:48.245Z,35.50
2023-02-12T02:34:16.511Z,35.50
2023-02-12T02:37:18.587Z,35.00
2023-02-12T02:39:57.096Z,36.75
2023-02-12T02:42:34.227Z,34.75
2023-02-12T02:45:13.745Z,35.75
2023-02-12T02:47:50.893Z,34.50
2023-02-12T02:50:24.186Z,34.50
2023-02-12T02:53:20.774Z,34.25
2023-02-12T02:55:54.810Z,35.75
2023-02-12T02:58:46.478Z,34.00
2023-02-12T03:01:24.397Z,34.25
2023-02-12T03:04:03.805Z,34.50
2023-02-12T03:06:46.072Z,33.75
2023-02-12T03:09:29.647Z,34.50
2023-02-12T03:12:04.809Z,31.75
2023-02-12T03:14:41.259Z,35.00
2023-02-12T03:17:19.708Z,33.25
2023-02-12T03:20:08.523Z,33.00
2023-02-12T03:22:42.055Z,31.25
2023-02-12T03:25:17.882Z,31.75
2023-02-12T03:27:54.267Z,31.75
2023-02-12T03:30:23.862Z,32.25
2023-02-12T03:33:24.143Z,34.75
2023-02-12T03:36:09.122Z,33.75
2023-02-12T03:38:37.368Z,31.50
2023-02-12T03:41:22.041Z,34.75
2023-02-12T03:44:14.529Z,31.75
2023-02-12T03:47:05.269Z,31.00
2023-02-12T03:49:59.303Z,32.75
2023-02-12T03:52:28.275Z,33.75
2023-02-12T03:54:56.718Z,30.50
2023-02-12T03:57:32.298Z,31.50
2023-02-12T04:00:03.258Z,31.25
2023-02-12T04:02:31.855Z,34.00
2023-02-12T04:05:05.435Z,31.25
2023-02-12T04:07:34.987Z,32.00
2023-02-12T04:10:03.748Z,30.25
2023-02-12T04:12:41.184Z,32.00
2023-02-12T04:15:18.556Z,32.25
2023-02-12T04:18:10.847Z,34.50
2023-02-12T04:20:51.034Z,32.00
2023-02-12T04:23:36.509Z,32.50
2023-02-12T04:26:30.871Z,32.75
2023-02-12T04:29:27.543Z,30.00
2023-02-12T04:32:01.964Z,31.50
2023-02-12T04:34:48.846Z,31.00
2023-02-12T04:37:19.393Z,28.75
2023-02-12T04:39:49.681Z,27.75
2023-02-12T04:42:18.061Z,28.75
2023-02-12T04:44:46.978Z,29.00
2023-02-12T04:47:17.129Z,28.50
2023-02-12T04:49:45.663Z,28.25
2023-02-12T04:52:14.010Z,25.25
2023-02-12T04:54:42.324Z,23.25
2023-02-12T04:57:11.110Z,24.00
2023-02-12T04:59:39.382Z,21.25
2023-02-12T05:02:07.821Z,24.00
2023-02-12T05:04:36.151Z,26.75
2023-02-12T05:07:04.428Z,26.00
2023-02-12T05:09:32.718Z,22.00
2023-02-12T05:12:01.034Z,25.25
2023-02-12T05:14:29.446Z,24.25
2023-02-12T05:16:57.861Z,24.25
2023-02-12T05:19:26.464Z,27.00
2023-02-12T05:21:54.757Z,24.50
2023-02-12T05:24:23.181Z,26.00
2023-02-12T05:26:52.809Z,24.75
2023-02-12T05:29:21.190Z,22.50
2023-02-12T05:31:49.579Z,23.75
2023-02-12T05:34:17.900Z,23.50
2023-02-12T05:36:46.220Z,25.25
2023-02-12T05:39:14.535Z,25.50
2023-02-12T05:41:42.816Z,25.75
2023-02-12T05:44:12.960Z,24.25
2023-02-12T05:46:41.335Z,23.75
2023-02-12T05:49:11.018Z,23.25
2023-02-12T05:51:39.492Z,26.00
2023-02-12T05:54:08.666Z,22.00
2023-02-12T05:56:43.034Z,24.50
2023-02-12T05:59:17.480Z,22.25
2023-02-12T06:01:47.320Z,22.50
2023-02-12T06:04:19.242Z,23.75
2023-02-12T06:06:47.785Z,22.25
2023-02-12T06:09:16.271Z,21.50
2023-02-12T06:11:45.062Z,20.50
2023-02-12T06:14:17.644Z,24.50
2023-02-12T06:16:48.126Z,22.50
2023-02-12T06:19:16.660Z,22.00
2023-02-12T06:21:45.045Z,21.25
2023-02-12T06:24:17.745Z,20.50
2023-02-12T06:26:47.211Z,22.25
2023-02-12T06:29:15.568Z,20.50
2023-02-12T06:31:44.435Z,21.25
2023-02-12T06:34:14.800Z,28.00
2023-02-12T06:36:48.455Z,23.00
2023-02-12T06:39:18.099Z,20.75
2023-02-12T06:41:46.661Z,20.75
2023-02-12T06:44:15.138Z,22.00
2023-02-12T06:46:43.629Z,23.00
2023-02-12T06:49:15.205Z,18.25
2023-02-12T06:51:43.723Z,22.50
2023-02-12T06:54:16.936Z,18.50
2023-02-12T06:56:46.143Z,18.50
2023-02-12T06:59:16.857Z,21.75
2023-02-12T07:01:45.276Z,19.50
2023-02-12T07:04:13.936Z,16.50
2023-02-12T07:06:42.537Z,19.00
2023-02-12T07:09:11.254Z,21.00
2023-02-12T07:11:39.854Z,16.00
2023-02-12T07:14:08.870Z,21.00
2023-02-12T07:16:37.262Z,27.25
2023-02-12T07:19:05.609Z,44.25
2023-02-12T07:21:34.474Z,38.50
2023-02-12T07:24:02.809Z,22.25
2023-02-12T07:26:31.164Z,20.50
2023-02-12T07:29:00.190Z,21.50
2023-02-12T07:31:28.575Z,18.50
2023-02-12T07:33:58.677Z,21.50
2023-02-12T07:36:31.144Z,19.50
2023-02-12T07:39:00.019Z,18.75
2023-02-12T07:41:31.106Z,20.50
2023-02-12T07:44:01.849Z,17.50
2023-02-12T07:46:36.106Z,19.00
2023-02-12T07:49:07.087Z,17.50
2023-02-12T07:51:36.706Z,17.50
2023-02-12T07:54:05.575Z,17.25
2023-02-12T07:56:36.373Z,18.75
2023-02-12T07:59:13.523Z,17.00
2023-02-12T08:01:48.745Z,16.75
2023-02-12T08:04:20.259Z,17.00
2023-02-12T08:06:50.807Z,17.00
2023-02-12T08:09:25.097Z,18.00
2023-02-12T08:11:54.305Z,16.75
2023-02-12T08:14:23.681Z,17.50
2023-02-12T08:16:52.948Z,15.75
2023-02-12T08:19:25.794Z,16.50
2023-02-12T08:21:56.396Z,15.00
2023-02-12T08:24:25.935Z,16.25
2023-02-12T08:26:54.409Z,15.50
2023-02-12T08:29:26.182Z,13.00
2023-02-12T08:32:00.030Z,17.50
2023-02-12T08:34:33.350Z,17.50
2023-02-12T08:37:02.533Z,18.25
2023-02-12T08:39:31.572Z,16.00
2023-02-12T08:42:02.209Z,17.25
2023-02-12T08:44:31.060Z,12.50
2023-02-12T08:46:59.601Z,11.75
2023-02-12T08:49:30.632Z,14.25
2023-02-12T08:52:00.825Z,14.00
2023-02-12T08:54:31.497Z,16.25
2023-02-12T08:57:02.433Z,16.25
2023-02-12T08:59:31.753Z,11.75
2023-02-12T09:02:00.446Z,11.75
2023-02-12T09:04:30.407Z,12.50
2023-02-12T09:06:59.048Z,12.25
2023-02-12T09:09:27.367Z,14.00
2023-02-12T09:11:55.670Z,14.50
2023-02-12T09:14:26.757Z,13.75
2023-02-12T09:16:56.044Z,13.25
2023-02-12T09:19:24.847Z,13.50
2023-02-12T09:21:57.160Z,11.00
2023-02-12T09:24:28.468Z,11.75
2023-02-12T09:26:57.180Z,13.50
2023-02-12T09:29:25.773Z,10.25
2023-02-12T09:31:54.361Z,12.00
2023-02-12T09:34:22.891Z,11.25
2023-02-12T09:36:51.219Z,9.75
2023-02-12T09:39:19.570Z,10.25
2023-02-12T09:42:02.349Z,11.75
2023-02-12T09:44:36.383Z,9.25
2023-02-12T09:47:14.938Z,11.00
2023-02-12T09:49:58.419Z,13.00
2023-02-12T09:52:29.358Z,9.50
2023-02-12T09:54:58.129Z,10.50
2023-02-12T09:57:37.118Z,12.25
2023-02-12T10:00:07.715Z,11.50
2023-02-12T10:02:41.405Z,10.00
2023-02-12T10:05:31.172Z,11.00
2023-02-12T10:08:25.309Z,11.00
2023-02-12T10:10:54.863Z,11.75
2023-02-12T10:13:32.857Z,13.75
2023-02-12T10:16:39.412Z,9.50
2023-02-12T10:19:13.944Z,11.00
2023-02-12T10:21:49.386Z,9.50
2023-02-12T10:24:17.657Z,11.00
2023-02-12T10:26:50.550Z,11.50
2023-02-12T10:29:28.490Z,9.75
2023-02-12T10:32:03.064Z,10.75
2023-02-12T10:34:37.116Z,11.00
2023-02-12T10:37:34.837Z,9.00
2023-02-12T10:40:18.900Z,9.25
2023-02-12T10:42:50.793Z,8.50
2023-02-12T10:45:23.737Z,9.00
2023-02-12T10:47:55.794Z,7.75
2023-02-12T10:50:59.470Z,8.00
2023-02-12T10:53:35.277Z,8.75
2023-02-12T10:56:20.280Z,9.25
2023-02-12T10:58:51.834Z,9.00
2023-02-12T11:01:26.892Z,11.00
2023-02-12T11:04:00.058Z,10.00
2023-02-12T11:06:34.454Z,10.00
2023-02-12T11:09:02.856Z,10.00
2023-02-12T11:11:33.000Z,10.75
2023-02-12T11:14:22.512Z,10.50
2023-02-12T11:16:56.569Z,9.75
2023-02-12T11:19:35.939Z,10.25
2023-02-12T11:22:19.779Z,10.00
2023-02-12T11:25:00.593Z,9.25
2023-02-12T11:27:31.990Z,10.25
2023-02-12T11:30:17.333Z,10.50
2023-02-12T11:32:45.936Z,9.50
2023-02-12T11:35:19.230Z,10.50
2023-02-12T11:37:48.622Z,9.25
2023-02-12T11:40:29.961Z,10.25
2023-02-12T11:43:10.461Z,11.25
2023-02-12T11:45:45.939Z,14.25
2023-02-12T11:48:48.271Z,10.75
2023-02-12T11:51:33.063Z,13.25
2023-02-12T11:54:07.185Z,14.00
2023-02-12T11:56:45.184Z,15.50
2023-02-12T11:59:42.701Z,13.00
2023-02-12T12:02:27.298Z,13.50
2023-02-12T12:05:04.397Z,15.00
2023-02-12T12:07:38.722Z,14.75
2023-02-12T12:10:42.202Z,20.75
2023-02-12T12:13:35.078Z,24.00
2023-02-12T12:16:33.404Z,22.25
2023-02-12T12:19:41.360Z,19.25
2023-02-12T12:22:37.725Z,19.25
2023-02-12T12:25:36.189Z,20.75
2023-02-12T12:28:23.093Z,21.25
2023-02-12T12:31:09.513Z,20.25
2023-02-12T12:33:43.590Z,22.25
2023-02-12T12:36:14.865Z,21.75
2023-02-12T12:39:18.286Z,24.25
2023-02-12T12:42:23.716Z,22.25
2023-02-12T12:45:16.781Z,22.25
2023-02-12T12:48:07.193Z,22.25
2023-02-12T12:51:05.819Z,24.00
2023-02-12T12:53:58.718Z,24.25
2023-02-12T12:56:35.678Z,26.00
2023-02-12T13:00:01.744Z,22.50
2023-02-12T13:02:44.786Z,20.00
2023-02-12T13:05:52.603Z,21.75
2023-02-12T13:08:39.177Z,25.25
2023-02-12T13:11:30.722Z,24.25
2023-02-12T13:14:13.760Z,27.00
2023-02-12T13:16:50.533Z,24.75
2023-02-12T13:19:48.385Z,26.50
2023-02-12T13:22:32.028Z,25.00
2023-02-12T13:25:28.279Z,27.75
2023-02-12T13:27:59.524Z,24.75
2023-02-12T13:30:40.816Z,22.75
2023-02-12T13:33:18.074Z,23.25
2023-02-12T13:35:51.016Z,26.50
2023-02-12T13:38:26.904Z,24.50
2023-02-12T13:41:01.431Z,27.00
2023-02-12T13:43:32.419Z,26.25
2023-02-12T13:46:30.313Z,26.25
2023-02-12T13:49:13.556Z,24.00
2023-02-12T13:51:57.870Z,24.25
2023-02-12T13:54:58.277Z,24.50
2023-02-12T13:57:26.720Z,24.25
2023-02-12T13:59:56.951Z,27.50
2023-02-12T14:02:30.611Z,26.00
2023-02-12T14:05:01.864Z,26.00
2023-02-12T14:07:57.638Z,28.25
2023-02-12T14:10:31.151Z,28.00
2023-02-12T14:13:24.357Z,25.00
2023-02-12T14:15:59.564Z,28.50
2023-02-12T14:18:35.717Z,28.50
2023-02-12T14:21:13.214Z,26.75
2023-02-12T14:23:43.491Z,25.75
2023-02-12T14:26:25.658Z,26.75
2023-02-12T14:29:08.103Z,26.75
2023-02-12T14:31:39.062Z,27.50
2023-02-12T14:34:07.478Z,29.00
2023-02-12T14:36:43.665Z,26.25
2023-02-12T14:39:30.352Z,30.25
2023-02-12T14:42:38.528Z,29.00
2023-02-12T14:45:07.033Z,23.00
2023-02-12T14:47:35.276Z,26.00
2023-02-12T14:50:13.908Z,24.75
2023-02-12T14:52:49.888Z,27.50
2023-02-12T14:55:29.456Z,28.75
2023-02-12T14:58:04.642Z,26.00
2023-02-12T15:00:40.715Z,28.25
2023-02-12T15:03:15.316Z,27.50
2023-02-12T15:06:05.415Z,27.75
2023-02-12T15:08:46.094Z,24.50
2023-02-12T15:11:35.198Z,26.25
2023-02-12T15:14:29.369Z,24.50
2023-02-12T15:17:03.820Z,27.25
2023-02-12T15:19:44.348Z,24.00
2023-02-12T15:22:31.117Z,28.25
2023-02-12T15:25:18.288Z,25.00
2023-02-12T15:27:49.795Z,31.25
2023-02-12T15:30:25.904Z,27.25
2023-02-12T15:32:57.998Z,27.25
2023-02-12T15:35:32.372Z,24.50
2023-02-12T15:38:02.182Z,29.00
2023-02-12T15:40:32.741Z,37.75
2023-02-12T15:43:07.286Z,44.00
2023-02-12T15:45:37.804Z,29.75
2023-02-12T15:48:19.263Z,29.75
2023-02-12T15:50:52.888Z,30.00
2023-02-12T15:53:23.455Z,27.75
2023-02-12T15:55:53.070Z,29.75
2023-02-12T15:58:53.381Z,28.25
2023-02-12T16:01:28.233Z,27.00
2023-02-12T16:04:08.755Z,28.75
2023-02-12T16:06:38.006Z,28.25
2023-02-12T16:09:15.668Z,27.25
2023-02-12T16:11:47.185Z,29.50
2023-02-12T16:14:55.624Z,25.75
2023-02-12T16:17:39.135Z,27.00
2023-02-12T16:20:10.536Z,24.50
2023-02-12T16:22:42.249Z,25.75
2023-02-12T16:25:32.742Z,27.75
2023-02-12T16:28:07.954Z,26.75
2023-02-12T16:30:43.713Z,26.75
2023-02-12T16:33:46.328Z,28.75
2023-02-12T16:36:26.534Z,27.25
2023-02-12T16:39:06.873Z,28.00
2023-02-12T16:41:57.013Z,28.25
2023-02-12T16:44:32.368Z,26.00
2023-02-12T16:47:02.770Z,28.00
2023-02-12T16:49:31.197Z,25.00
2023-02-12T16:52:39.197Z,25.00
2023-02-12T16:55:18.998Z,27.25
2023-02-12T16:57:47.680Z,27.75
2023-02-12T17:00:18.652Z,27.50
2023-02-12T17:02:48.237Z,29.00
2023-02-12T17:05:19.334Z,24.50
2023-02-12T17:07:47.665Z,26.75
2023-02-12T17:10:18.350Z,26.25
2023-02-12T17:12:52.528Z,27.25
2023-02-12T17:15:33.890Z,28.50
2023-02-12T17:18:02.262Z,27.25
2023-02-12T17:20:30.585Z,29.50
2023-02-12T17:23:00.389Z,23.75
2023-02-12T17:25:31.054Z,25.50
2023-02-12T17:27:59.683Z,26.50
2023-02-12T17:30:29.853Z,26.25
2023-02-12T17:32:58.204Z,29.50
2023-02-12T17:35:26.548Z,26.25
2023-02-12T17:37:54.904Z,26.50
2023-02-12T17:40:23.327Z,27.25
2023-02-12T17:42:51.662Z,27.75
2023-02-12T17:45:20.108Z,26.50
2023-02-12T17:47:48.459Z,27.75
2023-02-12T17:50:19.416Z,25.00
2023-02-12T17:52:48.115Z,27.75
2023-02-12T17:55:18.351Z,27.00
2023-02-12T17:57:46.683Z,24.00
2023-02-12T18:00:15.845Z,31.75
2023-02-12T18:02:44.215Z,27.50
2023-02-12T18:05:12.556Z,28.25
2023-02-12T18:07:40.952Z,29.00
2023-02-12T18:10:11.571Z,27.75
2023-02-12T18:12:40.296Z,28.50
2023-02-12T18:15:10.231Z,27.00
2023-02-12T18:17:38.797Z,28.25
2023-02-12T18:20:07.957Z,29.25
2023-02-12T18:22:36.340Z,28.50
2023-02-12T18:25:04.988Z,30.25
2023-02-12T18:27:33.339Z,26.25
2023-02-12T18:30:01.722Z,27.00
2023-02-12T18:32:30.080Z,29.25
2023-02-12T18:34:58.423Z,31.75
2023-02-12T18:37:26.784Z,30.50
2023-02-12T18:39:55.159Z,27.00
2023-02-12T18:42:23.533Z,29.75
2023-02-12T18:44:55.550Z,30.75
2023-02-12T18:47:23.941Z,30.00
2023-02-12T18:49:52.281Z,30.50
2023-02-12T18:52:20.651Z,30.25
2023-02-12T18:54:49.190Z,31.00
2023-02-12T18:57:17.524Z,28.75
2023-02-12T18:59:45.861Z,31.50
2023-02-12T19:02:15.123Z,28.50
2023-02-12T19:04:43.720Z,30.00
2023-02-12T19:07:12.150Z,31.00
2023-02-12T19:09:40.621Z,29.50
2023-02-12T19:12:09.915Z,28.25
2023-02-12T19:14:38.208Z,32.50
2023-02-12T19:17:06.501Z,29.00
2023-02-12T19:19:34.832Z,30.50
2023-02-12T19:22:03.685Z,29.00
2023-02-12T19:24:45.972Z,29.50
2023-02-12T19:27:15.255Z,30.25
2023-02-12T19:29:44.343Z,30.00
2023-02-12T19:32:12.716Z,29.75
2023-02-12T19:34:42.162Z,31.25
2023-02-12T19:37:11.832Z,30.50
2023-02-12T19:39:40.155Z,29.00
2023-02-12T19:42:08.469Z,30.00
2023-02-12T19:44:37.620Z,29.25
2023-02-12T19:47:06.185Z,31.00
2023-02-12T19:49:34.522Z,30.25
2023-02-12T19:52:02.853Z,29.25
2023-02-12T19:54:31.180Z,30.00
2023-02-12T19:56:59.474Z,29.25
2023-02-12T19:59:28.447Z,27.25
2023-02-12T20:01:57.484Z,29.00
2023-02-12T20:04:26.546Z,30.50
2023-02-12T20:06:55.046Z,28.25
2023-02-12T20:09:23.964Z,30.25
2023-02-12T20:11:52.989Z,28.50
2023-02-12T20:14:23.515Z,27.00
2023-02-12T20:16:54.657Z,30.75
2023-02-12T20:19:33.204Z,30.50
2023-02-12T20:22:02.554Z,29.75
2023-02-12T20:24:33.801Z,29.50
2023-02-12T20:27:03.450Z,29.25
2023-02-12T20:29:32.065Z,25.00
2023-02-12T20:32:00.421Z,28.25
2023-02-12T20:34:29.016Z,31.00
2023-02-12T20:36:57.876Z,25.25
2023-02-12T20:39:26.262Z,28.75
2023-02-12T20:41:54.595Z,29.00
2023-02-12T20:44:23.574Z,29.00
2023-02-12T20:46:56.422Z,30.75
2023-02-12T20:49:26.421Z,29.75
2023-02-12T20:51:54.911Z,28.50
2023-02-12T20:54:23.021Z,31.25
2023-02-12T20:56:52.042Z,30.00
2023-02-12T20:59:21.183Z,31.50
2023-02-12T21:01:50.041Z,29.25
2023-02-12T21:04:20.643Z,29.25
2023-02-12T21:06:49.656Z,29.00
2023-02-12T21:09:19.576Z,30.00
2023-02-12T21:11:48.405Z,32.25
2023-02-12T21:14:25.079Z,30.00
2023-02-12T21:16:56.060Z,29.00
2023-02-12T21:19:24.968Z,33.75
2023-02-12T21:21:53.392Z,29.00
2023-02-12T21:24:24.968Z,29.75
2023-02-12T21:26:55.013Z,31.00
2023-02-12T21:29:24.270Z,30.75
2023-02-12T21:31:52.962Z,28.00
2023-02-12T21:34:24.421Z,27.75
2023-02-12T21:36:55.559Z,29.25
2023-02-12T21:39:28.273Z,29.25
2023-02-12T21:42:03.731Z,30.75
2023-02-12T21:44:36.471Z,30.00
2023-02-12T21:47:05.098Z,31.75
2023-02-12T21:49:33.483Z,32.00
2023-02-12T21:52:04.660Z,29.50
2023-02-12T21:54:33.529Z,30.50
2023-02-12T21:57:02.341Z,30.75
2023-02-12T21:59:32.322Z,29.75
2023-02-12T22:02:02.711Z,28.25
2023-02-12T22:04:31.072Z,32.75
2023-02-12T22:07:03.903Z,31.50
2023-02-12T22:09:32.679Z,27.50
2023-02-12T22:12:01.029Z,30.00
2023-02-12T22:14:29.416Z,32.25
2023-02-12T22:16:57.760Z,30.75
2023-02-12T22:19:26.049Z,31.25
2023-02-12T22:21:54.397Z,32.50
2023-02-12T22:24:23.080Z,29.25
2023-02-12T22:26:51.522Z,31.50
2023-02-12T22:29:20.794Z,32.25
2023-02-12T22:31:50.509Z,30.75
2023-02-12T22:34:20.042Z,32.75
2023-02-12T22:36:48.949Z,34.00
2023-02-12T22:39:18.535Z,30.00
2023-02-12T22:41:47.532Z,36.75
2023-02-12T22:44:18.382Z,36.50
2023-02-12T22:46:48.747Z,36.25
2023-02-12T22:49:18.019Z,34.75
2023-02-12T22:51:46.425Z,33.50
2023-02-12T22:54:19.570Z,33.75
2023-02-12T22:56:51.707Z,34.00
2023-02-12T22:59:20.383Z,34.00
2023-02-12T23:01:48.696Z,32.50
2023-02-12T23:04:19.126Z,34.00
2023-02-12T23:06:48.200Z,33.50
2023-02-12T23:09:19.862Z,36.00
2023-02-12T23:11:49.263Z,36.00
2023-02-12T23:14:18.053Z,35.00
2023-02-12T23:16:47.074Z,37.75
2023-02-12T23:19:15.963Z,35.00
2023-02-12T23:21:44.447Z,35.75
2023-02-12T23:24:16.323Z,32.25
2023-02-12T23:26:44.949Z,35.00
2023-02-12T23:29:13.744Z,34.00
2023-02-12T23:31:42.188Z,35.00
2023-02-12T23:34:10.666Z,35.00
2023-02-12T23:36:38.952Z,33.50
2023-02-12T23:39:07.319Z,37.00
2023-02-12T23:41:35.626Z,32.25
2023-02-12T23:44:04.613Z,34.00
2023-02-12T23:46:33.324Z,34.00
2023-02-12T23:49:01.810Z,35.75
2023-02-12T23:51:30.395Z,33.75
2023-02-12T23:53:58.842Z,32.50
2023-02-12T23:56:27.252Z,31.75
2023-02-12T23:58:58.404Z,34.00
